Time;durP1;ratioP1;P1;durP2;ratioP2;P2;SDS_P1;SDS_P2;PMS_P1;PMS_P2;Temp;Humidity;BMP_temperature;BMP_pressure;BME280_temperature;BME280_humidity;BME280_pressure;Samples;Min_cycle;Max_cycle;Signal;HPM_P1;HPM_P2
2020/12/10 00:02:13;;;;;;;19.83;13.85;;;2.50;99.90;;;;;;5072762;28;20070;-77
2020/12/10 00:04:39;;;;;;;25.35;16.15;;;2.60;99.90;;;;;;5089694;28;20021;-77
2020/12/10 00:07:05;;;;;;;23.60;15.05;;;2.60;99.90;;;;;;5072692;28;20107;-77
2020/12/10 00:09:31;;;;;;;22.50;14.13;;;2.50;99.90;;;;;;5089631;28;20465;-78
2020/12/10 00:11:59;;;;;;;21.08;14.98;;;2.50;99.90;;;;;;5074242;28;20074;-77
2020/12/10 00:14:25;;;;;;;24.67;15.82;;;2.50;99.90;;;;;;5072612;28;20028;-77
2020/12/10 00:16:51;;;;;;;23.48;15.38;;;2.50;99.90;;;;;;5089179;28;20020;-76
2020/12/10 00:19:16;;;;;;;26.38;16.70;;;2.40;99.90;;;;;;5072553;28;20028;-77
2020/12/10 00:21:42;;;;;;;25.27;15.75;;;2.30;99.90;;;;;;5072280;28;20037;-77
2020/12/10 00:24:08;;;;;;;27.02;16.77;;;2.40;99.90;;;;;;5072529;28;20027;-77
2020/12/10 00:26:33;;;;;;;25.63;16.33;;;2.40;99.90;;;;;;5072476;28;20059;-77
2020/12/10 00:28:59;;;;;;;23.90;14.75;;;2.50;99.90;;;;;;5072420;28;20111;-77
2020/12/10 00:31:25;;;;;;;28.60;17.25;;;2.50;99.90;;;;;;5072386;28;20059;-77
2020/12/10 00:33:50;;;;;;;24.75;16.63;;;2.40;99.90;;;;;;5072396;28;20060;-77
2020/12/10 00:36:16;;;;;;;28.55;17.88;;;2.30;99.90;;;;;;5073573;28;20032;-77
2020/12/10 00:38:42;;;;;;;25.52;16.80;;;2.30;99.90;;;;;;5073537;28;20035;-77
2020/12/10 00:41:08;;;;;;;25.20;16.27;;;2.30;99.90;;;;;;5072278;28;20024;-77
2020/12/10 00:43:33;;;;;;;27.77;16.17;;;2.30;99.90;;;;;;5073550;28;20055;-77
2020/12/10 00:46:06;;;;;;;28.27;17.90;;;2.30;99.90;;;;;;5072173;28;20476;-77
2020/12/10 00:48:32;;;;;;;26.40;17.23;;;2.30;99.90;;;;;;5089021;28;20028;-77
2020/12/10 00:50:59;;;;;;;32.63;19.50;;;2.30;99.90;;;;;;5073991;28;20029;-77
2020/12/10 00:53:25;;;;;;;26.00;17.05;;;2.30;99.90;;;;;;5073457;28;20095;-77
2020/12/10 00:55:54;;;;;;;25.67;16.75;;;2.10;99.90;;;;;;5089015;28;20447;-77
2020/12/10 00:58:20;;;;;;;31.05;17.08;;;2.30;99.90;;;;;;5088987;28;20024;-77
2020/12/10 01:00:46;;;;;;;28.58;17.42;;;2.30;99.90;;;;;;5088869;28;20384;-77
2020/12/10 01:03:11;;;;;;;26.02;16.55;;;2.30;99.90;;;;;;5072044;28;20029;-77
2020/12/10 01:05:37;;;;;;;26.85;17.90;;;2.40;99.90;;;;;;5073346;28;20060;-77
2020/12/10 01:08:03;;;;;;;28.35;18.40;;;2.30;99.90;;;;;;5073287;28;20091;-77
2020/12/10 01:10:28;;;;;;;33.15;18.30;;;2.20;99.90;;;;;;5073566;28;20025;-77
2020/12/10 01:12:54;;;;;;;25.10;16.50;;;2.10;99.90;;;;;;5072037;28;20040;-77
2020/12/10 01:15:20;;;;;;;25.58;15.95;;;2.20;99.90;;;;;;5073303;28;20032;-78
2020/12/10 01:17:46;;;;;;;25.92;16.52;;;2.40;99.90;;;;;;5073161;28;20104;-77
2020/12/10 01:20:11;;;;;;;25.95;15.63;;;2.50;99.90;;;;;;5073103;28;20106;-77
2020/12/10 01:22:38;;;;;;;27.95;16.90;;;2.50;99.90;;;;;;5072937;28;20052;-76
2020/12/10 01:25:05;;;;;;;33.20;17.10;;;2.60;99.90;;;;;;5073732;28;20450;-77
2020/12/10 01:27:31;;;;;;;28.33;17.67;;;2.70;99.90;;;;;;5074039;28;20016;-77
2020/12/10 01:29:56;;;;;;;31.05;19.40;;;2.60;99.90;;;;;;5075735;28;20361;-76
2020/12/10 01:32:23;;;;;;;29.10;17.52;;;2.50;99.90;;;;;;5075668;28;20468;-76
2020/12/10 01:34:49;;;;;;;32.10;17.27;;;2.40;99.90;;;;;;5092513;28;20020;-77
2020/12/10 01:37:15;;;;;;;32.97;19.30;;;2.40;99.90;;;;;;5076839;28;20086;-77
2020/12/10 01:39:41;;;;;;;33.15;19.98;;;2.30;99.90;;;;;;5076840;28;20021;-77
2020/12/10 01:42:07;;;;;;;29.98;18.08;;;2.30;99.90;;;;;;5092268;28;20033;-77
2020/12/10 01:44:32;;;;;;;31.20;17.95;;;2.20;99.90;;;;;;5076774;28;20070;-77
2020/12/10 01:46:58;;;;;;;26.15;16.40;;;2.40;99.90;;;;;;5076660;28;20021;-77
2020/12/10 01:49:24;;;;;;;30.08;18.40;;;2.40;99.90;;;;;;5075373;28;20035;-77
2020/12/10 01:51:50;;;;;;;31.58;16.95;;;2.40;99.90;;;;;;5075344;28;20541;-77
2020/12/10 01:54:15;;;;;;;30.08;18.92;;;2.30;99.90;;;;;;5075239;28;20029;-77
2020/12/10 01:56:41;;;;;;;32.80;19.67;;;2.20;99.90;;;;;;5075180;28;20040;-78
2020/12/10 01:59:07;;;;;;;30.30;16.90;;;2.30;99.90;;;;;;5076475;28;20094;-77
2020/12/10 02:01:34;;;;;;;34.47;18.77;;;2.20;99.90;;;;;;5075077;28;20032;-77
2020/12/10 02:04:00;;;;;;;28.45;17.38;;;2.20;99.90;;;;;;5092216;28;20030;-77
2020/12/10 02:06:26;;;;;;;28.65;18.13;;;2.10;99.90;;;;;;5076612;28;20107;-77
2020/12/10 02:08:52;;;;;;;31.65;18.80;;;2.10;99.90;;;;;;5075018;28;20387;-77
2020/12/10 02:11:18;;;;;;;33.17;18.88;;;2.20;99.90;;;;;;5076499;28;20901;-77
2020/12/10 02:13:43;;;;;;;32.33;19.67;;;2.30;99.90;;;;;;5074936;28;20024;-77
2020/12/10 02:16:09;;;;;;;31.70;18.52;;;2.30;99.90;;;;;;5074855;28;20020;-77
2020/12/10 02:18:36;;;;;;;33.70;19.45;;;2.30;99.90;;;;;;5076094;28;20485;-76
2020/12/10 02:21:02;;;;;;;30.75;18.55;;;2.10;99.90;;;;;;5076039;28;20025;-77
2020/12/10 02:23:28;;;;;;;24.08;15.65;;;2.10;99.90;;;;;;5091468;28;20496;-77
2020/12/10 02:25:53;;;;;;;33.45;19.33;;;2.20;99.90;;;;;;5075985;28;20031;-77
2020/12/10 02:28:19;;;;;;;28.40;18.15;;;2.10;99.90;;;;;;5091515;28;20027;-77
2020/12/10 02:30:47;;;;;;;29.98;18.92;;;2.10;99.90;;;;;;5074547;28;20032;-78
2020/12/10 02:33:13;;;;;;;30.55;18.27;;;2.00;99.90;;;;;;5075804;28;20029;-77
2020/12/10 02:35:40;;;;;;;31.00;18.83;;;1.90;99.90;;;;;;5076146;28;20048;-77
2020/12/10 02:38:09;;;;;;;30.70;18.60;;;2.00;99.90;;;;;;5075908;28;20024;-77
2020/12/10 02:40:43;;;;;;;32.03;19.27;;;1.90;99.90;;;;;;5075768;28;20123;-78
2020/12/10 02:43:10;;;;;;;28.08;17.30;;;2.00;99.90;;;;;;5075695;28;20055;-77
2020/12/10 02:45:37;;;;;;;29.25;18.05;;;2.00;99.90;;;;;;5091148;28;20021;-78
2020/12/10 02:48:04;;;;;;;31.92;18.90;;;2.00;99.90;;;;;;5091090;28;20024;-77
2020/12/10 02:50:30;;;;;;;27.80;17.75;;;2.00;99.90;;;;;;5075789;28;20376;-77
2020/12/10 02:52:55;;;;;;;31.80;18.73;;;2.00;99.90;;;;;;5075427;28;20020;-76
2020/12/10 02:55:21;;;;;;;27.92;17.42;;;2.00;99.90;;;;;;5074190;28;20020;-77
2020/12/10 02:57:46;;;;;;;30.58;18.63;;;2.00;99.90;;;;;;5074152;28;20032;-77
2020/12/10 03:00:12;;;;;;;28.42;17.70;;;2.10;99.90;;;;;;5073984;28;20055;-77
2020/12/10 03:02:38;;;;;;;29.85;17.60;;;2.10;99.90;;;;;;5075553;28;20013;-78
2020/12/10 03:05:06;;;;;;;31.55;18.40;;;2.20;99.90;;;;;;5090871;28;20071;-76
2020/12/10 03:07:32;;;;;;;31.10;18.98;;;2.10;99.90;;;;;;5090977;28;20027;-77
2020/12/10 03:09:58;;;;;;;29.98;17.25;;;2.00;99.90;;;;;;5090740;28;20024;-77
2020/12/10 03:12:24;;;;;;;25.52;16.48;;;1.90;99.90;;;;;;5075112;28;20032;-77
2020/12/10 03:14:50;;;;;;;30.05;17.70;;;2.00;99.90;;;;;;5073797;28;20041;-76
2020/12/10 03:17:15;;;;;;;30.90;18.40;;;2.20;99.90;;;;;;5090751;28;20024;-76
2020/12/10 03:19:41;;;;;;;30.33;18.40;;;2.10;99.90;;;;;;5073698;28;20030;-77
2020/12/10 03:22:11;;;;;;;28.85;17.17;;;1.90;99.90;;;;;;5073488;28;20045;-76
2020/12/10 03:24:37;;;;;;;23.85;16.17;;;1.80;99.90;;;;;;5090605;28;20107;-77
2020/12/10 03:27:02;;;;;;;27.65;17.20;;;2.00;99.90;;;;;;5073553;28;20544;-77
2020/12/10 03:29:28;;;;;;;25.90;16.85;;;2.20;99.90;;;;;;5074897;28;20031;-77
2020/12/10 03:31:54;;;;;;;23.08;15.18;;;2.30;99.90;;;;;;5074890;28;20104;-77
2020/12/10 03:34:21;;;;;;;28.63;17.15;;;2.50;99.90;;;;;;5074773;28;20078;-77
2020/12/10 03:36:51;;;;;;;28.80;18.10;;;2.40;99.90;;;;;;5074929;28;20074;-77
2020/12/10 03:39:19;;;;;;;31.02;17.95;;;2.30;99.90;;;;;;5090375;28;20024;-78
2020/12/10 03:41:45;;;;;;;29.45;18.17;;;2.30;99.90;;;;;;5073285;28;20479;-77
2020/12/10 03:44:11;;;;;;;28.90;18.05;;;2.30;99.90;;;;;;5090093;28;20077;-77
2020/12/10 03:46:38;;;;;;;30.30;17.80;;;2.10;99.90;;;;;;5074407;28;20504;-77
2020/12/10 03:49:05;;;;;;;28.58;18.67;;;2.10;99.90;;;;;;5074525;28;20472;-77
2020/12/10 03:51:31;;;;;;;30.95;18.17;;;2.10;99.90;;;;;;5089579;28;20126;-77
2020/12/10 03:53:57;;;;;;;31.48;18.50;;;2.10;99.90;;;;;;5074415;28;20459;-77
2020/12/10 03:56:22;;;;;;;31.65;18.33;;;2.20;99.90;;;;;;5074298;28;20047;-77
2020/12/10 03:58:48;;;;;;;27.10;16.80;;;2.20;99.90;;;;;;5072937;28;20035;-77
2020/12/10 04:01:14;;;;;;;29.05;16.17;;;2.10;99.90;;;;;;5072844;28;20036;-77
2020/12/10 04:03:40;;;;;;;30.38;17.42;;;2.20;99.90;;;;;;5089818;28;20021;-77
2020/12/10 04:06:06;;;;;;;27.65;16.58;;;2.10;99.90;;;;;;5074176;28;20500;-76
2020/12/10 04:08:32;;;;;;;26.45;17.02;;;2.20;99.90;;;;;;5072911;28;20024;-76
2020/12/10 04:10:58;;;;;;;27.75;17.25;;;2.30;99.90;;;;;;5074073;28;20040;-77
2020/12/10 04:13:24;;;;;;;26.45;16.65;;;2.40;99.90;;;;;;5074037;28;20025;-77
2020/12/10 04:15:49;;;;;;;28.63;17.52;;;2.40;99.90;;;;;;5072697;28;20025;-77
2020/12/10 04:18:15;;;;;;;30.52;17.80;;;2.30;99.90;;;;;;5073974;28;20051;-78
2020/12/10 04:20:41;;;;;;;28.00;17.40;;;2.30;99.90;;;;;;5074078;28;20527;-77
2020/12/10 04:23:06;;;;;;;25.80;16.65;;;2.10;99.90;;;;;;5072450;28;20049;-76
2020/12/10 04:25:32;;;;;;;29.00;17.13;;;2.20;99.90;;;;;;5072625;28;20024;-78
2020/12/10 04:27:58;;;;;;;28.75;17.67;;;2.10;99.90;;;;;;5073933;28;20021;-77
2020/12/10 04:30:23;;;;;;;26.20;16.13;;;2.00;99.90;;;;;;5073772;28;20034;-78
2020/12/10 04:32:49;;;;;;;31.77;18.75;;;2.00;99.90;;;;;;5072425;28;20051;-76
2020/12/10 04:35:15;;;;;;;30.25;18.02;;;1.90;99.90;;;;;;5089370;28;20046;-76
2020/12/10 04:37:44;;;;;;;26.50;16.30;;;1.80;99.90;;;;;;5073615;28;20033;-77
2020/12/10 04:40:09;;;;;;;30.48;18.58;;;1.90;99.90;;;;;;5072309;28;20511;-77
2020/12/10 04:42:39;;;;;;;27.88;18.02;;;2.10;99.90;;;;;;5072349;28;20020;-77
2020/12/10 04:45:05;;;;;;;26.85;17.20;;;2.10;99.90;;;;;;5089191;28;20472;-77
2020/12/10 04:47:31;;;;;;;30.25;17.48;;;2.10;99.90;;;;;;5072274;28;20047;-78
2020/12/10 04:50:02;;;;;;;28.80;17.95;;;1.90;99.90;;;;;;5072358;28;20538;-78
2020/12/10 04:52:28;;;;;;;32.35;19.00;;;2.00;99.90;;;;;;5072301;28;20369;-77
2020/12/10 04:54:55;;;;;;;32.28;18.20;;;2.10;99.90;;;;;;5072250;28;20051;-76
2020/12/10 04:57:22;;;;;;;28.25;17.35;;;2.00;99.90;;;;;;5073566;28;20028;-77
2020/12/10 04:59:48;;;;;;;31.63;18.45;;;2.10;99.90;;;;;;5073469;28;20075;-77
2020/12/10 05:02:13;;;;;;;35.75;19.73;;;2.10;99.90;;;;;;5072613;28;20033;-77
2020/12/10 05:04:41;;;;;;;31.42;18.52;;;2.10;99.90;;;;;;5077533;28;20051;-76
2020/12/10 05:07:06;;;;;;;33.75;18.58;;;2.10;99.90;;;;;;5093184;28;20024;-77
2020/12/10 05:09:33;;;;;;;31.33;17.70;;;1.90;99.90;;;;;;5077842;28;20028;-76
2020/12/10 05:11:59;;;;;;;26.17;16.45;;;1.90;99.90;;;;;;5093163;28;20059;-77
2020/12/10 05:14:24;;;;;;;30.00;18.02;;;1.90;99.90;;;;;;5076242;28;20044;-78
2020/12/10 05:17:10;;;;;;;30.02;18.50;;;2.00;99.90;;;;;;5076164;28;20028;-77
2020/12/10 05:19:36;;;;;;;30.02;18.60;;;2.00;99.90;;;;;;5076025;28;20437;-77
2020/12/10 05:22:06;;;;;;;28.92;17.98;;;2.00;99.90;;;;;;5075588;28;20178;-78
2020/12/10 05:24:33;;;;;;;30.58;18.63;;;2.00;99.90;;;;;;5092853;28;20051;-77
2020/12/10 05:27:14;;;;;;;27.67;17.85;;;1.90;99.90;;;;;;5092753;28;20024;-77
2020/12/10 05:29:39;;;;;;;29.48;18.20;;;2.00;99.90;;;;;;5075951;28;20495;-77
2020/12/10 05:32:05;;;;;;;28.90;17.73;;;2.00;99.90;;;;;;5075772;28;20025;-77
2020/12/10 05:34:30;;;;;;;31.15;19.23;;;2.00;99.90;;;;;;5075742;28;20028;-76
2020/12/10 05:36:56;;;;;;;29.95;18.02;;;2.00;99.90;;;;;;5076992;28;20380;-76
2020/12/10 05:39:22;;;;;;;30.90;18.42;;;2.00;99.90;;;;;;5077009;28;20046;-76
2020/12/10 05:41:53;;;;;;;29.77;17.83;;;2.20;99.90;;;;;;5077154;28;20024;-77
2020/12/10 05:44:24;;;;;;;29.08;17.85;;;2.20;99.90;;;;;;5076255;28;20025;-77
2020/12/10 05:47:05;;;;;;;31.20;19.92;;;2.10;99.90;;;;;;5076790;28;20021;-77
2020/12/10 05:49:31;;;;;;;31.20;18.38;;;2.00;99.90;;;;;;5076761;28;20020;-77
2020/12/10 05:52:03;;;;;;;29.75;18.33;;;1.90;99.90;;;;;;5076714;28;20468;-78
2020/12/10 05:54:33;;;;;;;31.50;17.85;;;2.00;99.90;;;;;;5076799;28;20082;-78
2020/12/10 05:57:02;;;;;;;31.65;17.38;;;2.00;99.90;;;;;;5076637;28;20119;-78
2020/12/10 05:59:28;;;;;;;30.73;17.85;;;2.00;99.90;;;;;;5092197;28;20111;-78
2020/12/10 06:02:00;;;;;;;27.52;16.45;;;2.20;99.90;;;;;;5092101;28;20024;-78
2020/12/10 06:04:27;;;;;;;28.38;16.65;;;2.20;99.90;;;;;;5076450;28;20079;-78
2020/12/10 06:06:58;;;;;;;28.02;17.20;;;2.20;99.90;;;;;;5076403;28;20380;-78
2020/12/10 06:09:25;;;;;;;26.20;16.02;;;2.30;99.90;;;;;;5075103;28;20472;-78
2020/12/10 06:12:11;;;;;;;29.80;17.02;;;2.30;99.90;;;;;;5076735;28;20021;-78
2020/12/10 06:15:00;;;;;;;30.92;17.38;;;2.30;99.90;;;;;;5091457;28;20492;-78
2020/12/10 06:17:26;;;;;;;33.00;18.35;;;2.30;99.90;;;;;;5091938;28;20426;-78
2020/12/10 06:19:52;;;;;;;30.30;17.45;;;2.30;99.90;;;;;;5091862;28;20035;-78
2020/12/10 06:22:25;;;;;;;27.35;17.05;;;2.20;99.90;;;;;;5091432;28;20393;-79
2020/12/10 06:24:51;;;;;;;28.38;17.63;;;2.30;99.90;;;;;;5076128;28;20028;-79
2020/12/10 06:27:22;;;;;;;31.20;17.98;;;2.20;99.90;;;;;;5076099;28;20024;-79
2020/12/10 06:29:48;;;;;;;35.10;18.17;;;2.30;99.90;;;;;;5075950;28;20024;-79
2020/12/10 06:32:18;;;;;;;27.17;18.27;;;2.20;99.90;;;;;;5075955;28;20069;-79
2020/12/10 06:34:51;;;;;;;28.25;17.63;;;1.90;99.90;;;;;;5076122;28;20093;-79
2020/12/10 06:37:27;;;;;;;27.83;16.70;;;1.80;99.90;;;;;;5092006;28;20029;-79
2020/12/10 06:40:04;;;;;;;28.85;17.63;;;1.90;99.90;;;;;;5091480;28;20476;-79
2020/12/10 06:42:59;;;;;;;28.92;17.40;;;1.80;99.90;;;;;;5091370;28;20025;-79
2020/12/10 06:45:36;;;;;;;29.10;17.25;;;1.80;99.90;;;;;;5061984;28;20488;-79
2020/12/10 06:48:06;;;;;;;30.65;17.95;;;1.90;99.90;;;;;;5075181;28;20169;-78
2020/12/10 06:50:38;;;;;;;31.92;17.27;;;1.90;99.90;;;;;;5075911;28;20028;-79
2020/12/10 06:53:11;;;;;;;35.35;20.20;;;2.00;99.90;;;;;;5075912;28;20031;-79
2020/12/10 06:55:59;;;;;;;29.73;18.67;;;2.00;99.90;;;;;;5075613;28;20043;-79
2020/12/10 06:58:34;;;;;;;34.88;19.77;;;1.80;99.90;;;;;;5075725;28;20494;-79
2020/12/10 07:01:17;;;;;;;29.38;18.63;;;1.70;99.90;;;;;;5074074;28;20060;-78
2020/12/10 07:03:44;;;;;;;30.20;19.45;;;1.70;99.90;;;;;;5075700;28;20021;-78
2020/12/10 07:06:19;;;;;;;31.20;16.17;;;1.90;99.90;;;;;;5074043;28;20021;-79
2020/12/10 07:09:03;;;;;;;30.63;18.05;;;2.00;99.90;;;;;;5090848;28;20027;-79
2020/12/10 07:11:30;;;;;;;;;;;2.10;99.90;;;;;;5091236;28;20029;-79
2020/12/10 07:13:56;;;;;;;30.55;18.38;;;2.10;99.90;;;;;;5075148;28;20356;-80
2020/12/10 07:16:29;;;;;;;33.20;18.08;;;2.00;99.90;;;;;;5075445;28;20029;-80
2020/12/10 07:18:54;;;;;;;32.25;18.90;;;2.00;99.90;;;;;;5074995;28;20025;-79
2020/12/10 07:21:22;;;;;;;26.83;16.80;;;2.10;99.90;;;;;;5074873;28;20539;-80
2020/12/10 07:23:48;;;;;;;27.50;17.20;;;2.20;99.90;;;;;;5090459;28;20052;-80
2020/12/10 07:26:14;;;;;;;28.45;17.55;;;2.20;99.90;;;;;;5089764;28;20073;-79
2020/12/10 07:28:40;;;;;;;31.17;17.75;;;2.20;99.90;;;;;;5074839;28;20028;-80
2020/12/10 07:31:13;;;;;;;33.22;19.50;;;2.00;99.90;;;;;;5073503;28;20170;-80
2020/12/10 07:33:39;;;;;;;34.33;20.17;;;2.10;99.90;;;;;;5074812;28;20558;-79
2020/12/10 07:36:07;;;;;;;29.50;18.42;;;2.10;99.90;;;;;;5090273;28;20020;-80
2020/12/10 07:38:33;;;;;;;31.88;18.80;;;2.00;99.90;;;;;;5074647;28;20024;-80
2020/12/10 07:40:58;;;;;;;16.30;10.45;;;1.90;99.90;;;;;;5074523;28;20486;-80
2020/12/10 07:43:26;;;;;;;16.88;11.00;;;2.10;99.90;;;;;;5073262;28;20361;-80
2020/12/10 07:45:52;;;;;;;21.08;13.55;;;2.10;99.90;;;;;;5074651;28;20128;-80
2020/12/10 07:48:19;;;;;;;28.92;17.02;;;2.10;99.90;;;;;;5090064;28;20419;-79
2020/12/10 07:50:46;;;;;;;29.55;18.23;;;2.20;99.90;;;;;;5090034;28;20078;-80
2020/12/10 07:53:12;;;;;;;28.75;17.52;;;2.20;99.90;;;;;;5089984;28;20032;-79
2020/12/10 07:55:45;;;;;;;29.67;17.48;;;2.10;99.90;;;;;;5074580;28;20103;-79
2020/12/10 07:58:30;;;;;;;26.40;15.23;;;2.20;99.90;;;;;;5090039;28;20472;-80
2020/12/10 08:01:01;;;;;;;28.20;16.13;;;2.10;99.90;;;;;;5074180;28;20032;-80
2020/12/10 08:04:08;;;;;;;26.92;16.13;;;2.10;99.90;;;;;;5089782;28;20052;-79
2020/12/10 08:06:34;;;;;;;30.30;17.73;;;2.20;99.90;;;;;;5072343;28;20036;-80
2020/12/10 08:09:01;;;;;;;30.25;17.80;;;2.20;99.90;;;;;;5072715;28;20158;-80
2020/12/10 08:11:27;;;;;;;33.63;19.63;;;2.20;99.90;;;;;;5074012;28;20357;-80
2020/12/10 08:14:10;;;;;;;36.30;21.92;;;2.30;99.90;;;;;;5072692;28;20032;-80
2020/12/10 08:16:42;;;;;;;32.15;19.00;;;2.30;99.90;;;;;;5074055;28;20111;-80
2020/12/10 08:19:14;;;;;;;32.38;17.73;;;2.20;99.90;;;;;;5074312;28;20472;-79
2020/12/10 08:21:40;;;;;;;40.45;19.52;;;2.20;99.90;;;;;;5072564;28;20035;-80
2020/12/10 08:24:06;;;;;;;32.25;18.33;;;2.20;99.90;;;;;;5089560;28;20070;-80
2020/12/10 08:26:32;;;;;;;34.25;18.50;;;2.10;99.90;;;;;;5072594;28;20381;-80
2020/12/10 08:28:58;;;;;;;39.60;19.70;;;2.20;99.90;;;;;;5072538;28;20020;-79
2020/12/10 08:31:26;;;;;;;31.02;17.50;;;2.10;99.90;;;;;;5072494;28;20032;-80
2020/12/10 08:33:52;;;;;;;28.30;16.92;;;2.10;99.90;;;;;;5074096;28;20031;-80
2020/12/10 08:36:33;;;;;;;33.50;18.08;;;2.10;99.90;;;;;;5089338;28;20026;-80
2020/12/10 08:39:04;;;;;;;38.47;17.95;;;2.20;99.90;;;;;;5073764;28;20020;-79
2020/12/10 08:41:35;;;;;;;32.20;18.35;;;2.10;99.90;;;;;;5074318;28;20112;-80
2020/12/10 08:44:06;;;;;;;27.10;15.35;;;2.20;99.90;;;;;;5072460;28;20422;-80
2020/12/10 08:46:34;;;;;;;32.13;19.15;;;2.30;99.90;;;;;;5073778;28;20444;-79
2020/12/10 08:49:19;;;;;;;30.45;16.95;;;2.30;99.90;;;;;;5089328;28;20028;-80
2020/12/10 08:51:47;;;;;;;32.60;18.73;;;2.20;99.90;;;;;;5089199;28;20034;-79
2020/12/10 08:54:14;;;;;;;31.52;18.02;;;2.20;99.90;;;;;;5072255;28;20024;-80
2020/12/10 08:56:40;;;;;;;39.67;18.27;;;2.10;99.90;;;;;;5089158;28;20028;-80
2020/12/10 08:59:06;;;;;;;31.30;18.20;;;2.10;99.90;;;;;;5074183;28;20025;-79
2020/12/10 09:01:33;;;;;;;28.30;16.98;;;2.10;99.90;;;;;;5073489;28;20021;-79
2020/12/10 09:03:58;;;;;;;30.52;18.50;;;2.20;99.90;;;;;;5089007;28;20028;-80
2020/12/10 09:06:36;;;;;;;33.97;17.60;;;2.30;99.90;;;;;;5072194;28;20017;-80
2020/12/10 09:09:04;;;;;;;36.03;18.05;;;2.30;99.90;;;;;;5073446;28;20069;-79
2020/12/10 09:11:30;;;;;;;34.80;15.93;;;2.30;99.90;;;;;;5073407;28;20028;-80
2020/12/10 09:13:59;;;;;;;43.97;19.30;;;2.40;99.90;;;;;;5073331;28;20102;-79
2020/12/10 09:16:29;;;;;;;36.95;20.95;;;2.40;99.90;;;;;;5071956;28;20074;-79
2020/12/10 09:18:56;;;;;;;23.90;14.82;;;2.20;99.90;;;;;;5073212;28;20070;-79
2020/12/10 09:21:21;;;;;;;23.08;13.63;;;2.30;99.90;;;;;;5088645;28;20436;-79
2020/12/10 09:23:47;;;;;;;32.67;19.02;;;2.30;99.90;;;;;;5073104;28;20072;-80
2020/12/10 09:26:14;;;;;;;27.42;15.23;;;2.30;99.90;;;;;;5071834;28;20016;-79
2020/12/10 09:28:40;;;;;;;29.70;15.57;;;2.30;99.90;;;;;;5073130;28;20017;-79
2020/12/10 09:31:06;;;;;;;30.67;18.02;;;2.40;99.90;;;;;;5073139;28;20027;-79
2020/12/10 09:33:32;;;;;;;33.35;17.20;;;2.30;99.90;;;;;;5071813;28;20139;-79
2020/12/10 09:35:58;;;;;;;32.15;18.25;;;2.00;99.90;;;;;;5073036;28;20095;-79
2020/12/10 09:38:24;;;;;;;26.52;15.27;;;2.20;99.90;;;;;;5071781;28;20480;-79
2020/12/10 09:40:49;;;;;;;33.00;16.77;;;2.30;99.90;;;;;;5071649;28;20033;-79
2020/12/10 09:43:15;;;;;;;32.83;19.77;;;2.30;99.90;;;;;;5073014;28;20021;-79
2020/12/10 09:45:45;;;;;;;36.30;17.33;;;2.20;99.90;;;;;;5072932;28;20020;-79
2020/12/10 09:48:10;;;;;;;37.47;20.88;;;2.30;99.90;;;;;;5072847;28;20448;-78
2020/12/10 09:50:37;;;;;;;40.38;21.02;;;2.40;99.90;;;;;;5076564;28;20028;-78
2020/12/10 09:53:15;;;;;;;31.80;18.60;;;2.40;99.90;;;;;;5075328;28;20028;-78
2020/12/10 09:58:19;;;;;;;18.23;10.93;;;2.40;99.90;;;;;;5077089;28;20028;-78
2020/12/10 10:00:49;;;;;;;20.80;12.40;;;2.40;99.90;;;;;;5092067;28;20479;-79
2020/12/10 10:03:20;;;;;;;19.30;13.30;;;2.50;99.90;;;;;;5092151;28;20047;-79
2020/12/10 10:05:46;;;;;;;17.63;11.35;;;2.40;99.90;;;;;;5076710;28;20021;-78
2020/12/10 10:08:12;;;;;;;14.40;9.52;;;2.50;99.90;;;;;;5091905;28;20020;-79
2020/12/10 10:10:38;;;;;;;14.55;9.35;;;2.20;99.90;;;;;;5076289;28;20099;-78
2020/12/10 10:13:04;;;;;;;18.40;10.88;;;2.10;99.90;;;;;;5076509;28;20501;-78
2020/12/10 10:15:30;;;;;;;16.67;10.85;;;2.00;99.90;;;;;;5074934;28;20063;-78
2020/12/10 10:17:56;;;;;;;17.83;11.10;;;2.10;99.90;;;;;;5074884;28;20024;-78
2020/12/10 10:20:22;;;;;;;19.20;12.30;;;2.20;99.90;;;;;;5074763;28;20093;-78
2020/12/10 10:22:48;;;;;;;18.27;11.73;;;2.20;99.90;;;;;;5075920;28;20431;-78
2020/12/10 10:25:14;;;;;;;18.63;11.65;;;2.20;99.90;;;;;;5074830;28;20021;-79
2020/12/10 10:27:40;;;;;;;16.42;10.85;;;2.40;99.90;;;;;;5074746;28;20078;-78
2020/12/10 10:30:07;;;;;;;15.80;10.00;;;2.40;99.90;;;;;;5074670;28;20021;-78
2020/12/10 10:32:34;;;;;;;17.73;10.85;;;2.40;99.90;;;;;;5091563;28;20028;-78
2020/12/10 10:35:00;;;;;;;15.65;10.93;;;2.60;99.90;;;;;;5091475;28;20024;-78
2020/12/10 10:37:25;;;;;;;15.82;10.60;;;2.70;99.90;;;;;;5076088;28;20017;-78
2020/12/10 10:39:51;;;;;;;16.02;10.20;;;2.80;99.90;;;;;;5074520;28;20031;-78
2020/12/10 10:42:17;;;;;;;17.08;9.98;;;2.70;99.90;;;;;;5074375;28;20484;-78
2020/12/10 10:44:42;;;;;;;15.20;10.05;;;2.70;99.90;;;;;;5076180;28;20028;-79
2020/12/10 10:47:08;;;;;;;14.23;9.50;;;2.60;99.90;;;;;;5074214;28;20036;-78
2020/12/10 10:49:34;;;;;;;15.25;9.90;;;2.70;99.90;;;;;;5091138;28;20028;-78
2020/12/10 10:52:00;;;;;;;16.77;10.27;;;2.70;99.90;;;;;;5074290;28;20097;-77
2020/12/10 10:54:26;;;;;;;17.10;9.85;;;2.60;99.90;;;;;;5091058;28;20151;-78
2020/12/10 10:56:52;;;;;;;12.95;8.60;;;2.70;99.90;;;;;;5074228;28;20055;-79
2020/12/10 10:59:17;;;;;;;11.88;8.65;;;2.70;99.90;;;;;;5073729;28;20028;-78
2020/12/10 11:01:43;;;;;;;13.70;9.13;;;2.80;99.90;;;;;;5073143;28;20494;-78
2020/12/10 11:04:09;;;;;;;16.88;10.05;;;2.80;99.90;;;;;;5075299;28;20087;-79
2020/12/10 11:06:34;;;;;;;14.40;10.32;;;2.90;99.90;;;;;;5075625;28;20021;-79
2020/12/10 11:09:00;;;;;;;15.90;10.80;;;3.00;99.90;;;;;;5074244;28;20017;-78
2020/12/10 11:11:26;;;;;;;13.88;9.23;;;3.10;99.90;;;;;;5075531;28;20021;-78
2020/12/10 11:13:52;;;;;;;18.42;9.38;;;3.00;99.90;;;;;;5073806;28;20098;-79
2020/12/10 11:16:18;;;;;;;16.02;10.68;;;3.00;99.90;;;;;;5073766;28;20470;-79
2020/12/10 11:18:45;;;;;;;12.85;9.20;;;3.00;99.90;;;;;;5073710;28;20028;-79
2020/12/10 11:21:12;;;;;;;14.65;9.80;;;3.20;99.90;;;;;;5090501;28;20056;-79
2020/12/10 11:23:39;;;;;;;14.48;9.07;;;3.20;99.90;;;;;;5074603;28;20052;-78
2020/12/10 11:26:06;;;;;;;15.43;10.35;;;3.30;99.90;;;;;;5090439;28;20045;-78
2020/12/10 11:28:32;;;;;;;15.15;10.23;;;3.30;99.90;;;;;;5073528;28;20029;-79
2020/12/10 11:30:58;;;;;;;14.02;9.45;;;3.20;99.90;;;;;;5073521;28;20033;-79
2020/12/10 11:33:24;;;;;;;13.60;9.18;;;3.30;99.90;;;;;;5074763;28;20024;-78
2020/12/10 11:35:51;;;;;;;12.55;8.88;;;3.30;99.90;;;;;;5074716;28;20028;-78
2020/12/10 11:38:17;;;;;;;15.50;10.05;;;3.30;99.90;;;;;;5074574;28;20028;-78
2020/12/10 11:40:42;;;;;;;20.70;11.02;;;3.30;99.90;;;;;;5074480;28;20036;-78
2020/12/10 11:43:08;;;;;;;23.33;13.15;;;3.20;99.90;;;;;;5073283;28;20020;-79
2020/12/10 11:45:34;;;;;;;32.17;17.02;;;3.00;99.90;;;;;;5074670;28;20024;-79
2020/12/10 11:48:03;;;;;;;21.38;13.18;;;2.90;99.90;;;;;;5073166;28;20430;-78
2020/12/10 11:50:31;;;;;;;21.58;12.95;;;2.90;99.90;;;;;;5074431;28;20071;-79
2020/12/10 11:52:57;;;;;;;19.73;12.75;;;2.90;99.90;;;;;;5074292;28;20020;-79
2020/12/10 11:55:23;;;;;;;20.42;11.43;;;2.80;99.90;;;;;;5074293;28;20551;-78
2020/12/10 11:57:49;;;;;;;17.65;12.02;;;2.80;99.90;;;;;;5089887;28;20031;-79
2020/12/10 12:00:15;;;;;;;15.85;11.15;;;2.80;99.90;;;;;;5074477;28;20495;-78
2020/12/10 12:02:41;;;;;;;20.02;12.18;;;2.80;99.90;;;;;;5089736;28;20024;-78
2020/12/10 12:05:08;;;;;;;20.35;12.75;;;2.80;99.90;;;;;;5074121;28;20023;-78
2020/12/10 12:07:34;;;;;;;17.98;12.15;;;2.80;99.90;;;;;;5072774;28;20111;-78
2020/12/10 12:10:00;;;;;;;19.38;12.73;;;2.80;99.90;;;;;;5074013;28;20091;-78
2020/12/10 12:12:26;;;;;;;23.30;14.05;;;2.70;99.90;;;;;;5073919;28;20055;-78
2020/12/10 12:14:51;;;;;;;24.10;15.90;;;2.70;99.90;;;;;;5073944;28;20060;-78
2020/12/10 12:17:17;;;;;;;18.55;13.32;;;2.80;99.90;;;;;;5074458;28;20398;-79
2020/12/10 12:19:43;;;;;;;22.20;13.68;;;2.70;99.90;;;;;;5072558;28;20024;-79
2020/12/10 12:22:09;;;;;;;24.50;13.80;;;2.70;99.90;;;;;;5072275;28;20021;-79
2020/12/10 12:24:34;;;;;;;21.65;14.10;;;2.70;99.90;;;;;;5074082;28;20025;-79
2020/12/10 12:27:04;;;;;;;31.98;18.92;;;2.70;99.90;;;;;;5072486;28;20047;-79
2020/12/10 12:29:31;;;;;;;39.15;22.33;;;2.60;99.90;;;;;;5072406;28;20027;-79
2020/12/10 12:31:57;;;;;;;22.23;14.77;;;2.70;99.90;;;;;;5073641;28;20032;-79
2020/12/10 12:34:25;;;;;;;22.20;14.32;;;2.80;99.90;;;;;;5073921;28;20024;-79
2020/12/10 12:36:50;;;;;;;20.85;13.98;;;2.70;99.90;;;;;;5089213;28;20028;-79
2020/12/10 12:39:16;;;;;;;19.55;12.50;;;2.80;99.90;;;;;;5073626;28;20020;-79
2020/12/10 12:41:42;;;;;;;23.38;15.05;;;2.80;99.90;;;;;;5072240;28;20476;-79
2020/12/10 12:44:08;;;;;;;18.80;13.02;;;2.80;99.90;;;;;;5073530;28;20528;-79